sensor_id;sensor_type;location;lat;lon;timestamp;pressure;altitude;pressure_sealevel;temperature;humidity
29569;BME280;16501;51.462;14.346;2023-05-15T00:01:36;99779.59;;;13.41;85.72
29569;BME280;16501;51.462;14.346;2023-05-15T00:04:01;99765.75;;;13.31;86.16
29569;BME280;16501;51.462;14.346;2023-05-15T00:06:26;99775.78;;;13.44;86.23
29569;BME280;16501;51.462;14.346;2023-05-15T00:08:52;99763.41;;;13.30;87.13
29569;BME280;16501;51.462;14.346;2023-05-15T00:11:17;99774.97;;;13.32;87.96
29569;BME280;16501;51.462;14.346;2023-05-15T00:13:43;99764.16;;;13.30;88.63
29569;BME280;16501;51.462;14.346;2023-05-15T00:16:08;99744.41;;;13.19;89.35
29569;BME280;16501;51.462;14.346;2023-05-15T00:18:33;99735.41;;;13.09;89.41
29569;BME280;16501;51.462;14.346;2023-05-15T00:20:59;99743.59;;;13.13;89.61
29569;BME280;16501;51.462;14.346;2023-05-15T00:23:24;99751.31;;;13.18;89.49
29569;BME280;16501;51.462;14.346;2023-05-15T00:25:49;99764.13;;;13.19;89.60
29569;BME280;16501;51.462;14.346;2023-05-15T00:28:15;99727.94;;;13.00;89.40
29569;BME280;16501;51.462;14.346;2023-05-15T00:30:42;99756.41;;;13.14;89.99
29569;BME280;16501;51.462;14.346;2023-05-15T00:33:07;99752.56;;;13.11;90.15
29569;BME280;16501;51.462;14.346;2023-05-15T00:35:33;99735.34;;;12.98;90.22
29569;BME280;16501;51.462;14.346;2023-05-15T00:37:58;99743.78;;;12.98;90.17
29569;BME280;16501;51.462;14.346;2023-05-15T00:40:24;99758.91;;;13.06;90.55
29569;BME280;16501;51.462;14.346;2023-05-15T00:42:51;99734.84;;;12.99;90.95
29569;BME280;16501;51.462;14.346;2023-05-15T00:45:16;99746.91;;;13.06;90.41
29569;BME280;16501;51.462;14.346;2023-05-15T00:47:43;99742.00;;;13.00;90.97
29569;BME280;16501;51.462;14.346;2023-05-15T00:50:10;99738.41;;;12.94;90.42
29569;BME280;16501;51.462;14.346;2023-05-15T00:52:36;99702.97;;;12.76;90.51
29569;BME280;16501;51.462;14.346;2023-05-15T00:55:02;99727.09;;;12.89;90.89
29569;BME280;16501;51.462;14.346;2023-05-15T00:57:28;99730.13;;;12.85;92.09
29569;BME280;16501;51.462;14.346;2023-05-15T00:59:55;99740.63;;;12.85;92.76
29569;BME280;16501;51.462;14.346;2023-05-15T01:02:21;99726.31;;;12.88;92.77
29569;BME280;16501;51.462;14.346;2023-05-15T01:04:47;99725.06;;;12.89;92.58
29569;BME280;16501;51.462;14.346;2023-05-15T01:07:12;99724.81;;;12.87;92.58
29569;BME280;16501;51.462;14.346;2023-05-15T01:09:43;99721.19;;;12.87;92.16
29569;BME280;16501;51.462;14.346;2023-05-15T01:12:09;99728.63;;;12.84;92.66
29569;BME280;16501;51.462;14.346;2023-05-15T01:14:35;99721.44;;;12.83;92.52
29569;BME280;16501;51.462;14.346;2023-05-15T01:17:00;99677.03;;;12.55;92.62
29569;BME280;16501;51.462;14.346;2023-05-15T01:19:26;99719.91;;;12.82;93.21
29569;BME280;16501;51.462;14.346;2023-05-15T01:24:37;99721.66;;;12.79;93.36
29569;BME280;16501;51.462;14.346;2023-05-15T01:27:17;99708.03;;;12.67;93.25
29569;BME280;16501;51.462;14.346;2023-05-15T01:30:11;99717.84;;;12.77;93.82
29569;BME280;16501;51.462;14.346;2023-05-15T01:35:57;99725.97;;;12.75;94.46
29569;BME280;16501;51.462;14.346;2023-05-15T01:38:33;99723.16;;;12.75;94.32
29569;BME280;16501;51.462;14.346;2023-05-15T01:41:08;99712.88;;;12.66;94.43
29569;BME280;16501;51.462;14.346;2023-05-15T01:43:38;99709.03;;;12.63;94.14
29569;BME280;16501;51.462;14.346;2023-05-15T01:46:04;99715.19;;;12.68;94.90
29569;BME280;16501;51.462;14.346;2023-05-15T01:48:32;99687.22;;;12.47;95.20
29569;BME280;16501;51.462;14.346;2023-05-15T01:51:00;99720.75;;;12.56;95.15
29569;BME280;16501;51.462;14.346;2023-05-15T01:53:29;99712.06;;;12.54;94.67
29569;BME280;16501;51.462;14.346;2023-05-15T01:55:56;99722.38;;;12.69;94.63
29569;BME280;16501;51.462;14.346;2023-05-15T01:58:24;99718.84;;;12.74;94.48
29569;BME280;16501;51.462;14.346;2023-05-15T02:00:50;99697.03;;;12.63;94.38
29569;BME280;16501;51.462;14.346;2023-05-15T02:03:16;99699.88;;;12.69;94.30
29569;BME280;16501;51.462;14.346;2023-05-15T02:05:42;99696.56;;;12.70;95.48
29569;BME280;16501;51.462;14.346;2023-05-15T02:08:10;99699.91;;;12.74;96.74
29569;BME280;16501;51.462;14.346;2023-05-15T02:10:36;99697.81;;;12.69;97.79
29569;BME280;16501;51.462;14.346;2023-05-15T02:13:02;99706.84;;;12.79;98.21
29569;BME280;16501;51.462;14.346;2023-05-15T02:15:27;99677.09;;;12.67;97.85
29569;BME280;16501;51.462;14.346;2023-05-15T02:17:53;99671.47;;;12.61;98.28
29569;BME280;16501;51.462;14.346;2023-05-15T02:20:19;99685.22;;;12.59;99.47
29569;BME280;16501;51.462;14.346;2023-05-15T02:22:45;99678.31;;;12.54;100.00
29569;BME280;16501;51.462;14.346;2023-05-15T02:25:10;99678.84;;;12.58;100.00
29569;BME280;16501;51.462;14.346;2023-05-15T02:35:42;99680.19;;;12.69;100.00
29569;BME280;16501;51.462;14.346;2023-05-15T02:38:14;99673.50;;;12.66;100.00
29569;BME280;16501;51.462;14.346;2023-05-15T02:40:40;99671.47;;;12.61;100.00
29569;BME280;16501;51.462;14.346;2023-05-15T02:43:07;99654.72;;;12.46;100.00
29569;BME280;16501;51.462;14.346;2023-05-15T02:45:33;99652.19;;;12.48;100.00
29569;BME280;16501;51.462;14.346;2023-05-15T02:48:00;99648.38;;;12.51;100.00
29569;BME280;16501;51.462;14.346;2023-05-15T02:50:26;99654.53;;;12.55;100.00
29569;BME280;16501;51.462;14.346;2023-05-15T02:53:03;99641.19;;;12.50;100.00
29569;BME280;16501;51.462;14.346;2023-05-15T02:55:28;99653.53;;;12.58;100.00
29569;BME280;16501;51.462;14.346;2023-05-15T02:57:54;99648.38;;;12.51;100.00
29569;BME280;16501;51.462;14.346;2023-05-15T03:00:19;99651.22;;;12.57;100.00
29569;BME280;16501;51.462;14.346;2023-05-15T03:02:45;99651.22;;;12.57;100.00
29569;BME280;16501;51.462;14.346;2023-05-15T03:05:10;99630.41;;;12.43;100.00
29569;BME280;16501;51.462;14.346;2023-05-15T03:07:35;99631.47;;;12.45;100.00
29569;BME280;16501;51.462;14.346;2023-05-15T03:10:00;99634.28;;;12.45;100.00
29569;BME280;16501;51.462;14.346;2023-05-15T03:12:26;99616.56;;;12.34;100.00
29569;BME280;16501;51.462;14.346;2023-05-15T03:14:51;99637.84;;;12.46;100.00
29569;BME280;16501;51.462;14.346;2023-05-15T03:17:16;99640.66;;;12.46;100.00
29569;BME280;16501;51.462;14.346;2023-05-15T03:19:41;99618.03;;;12.23;100.00
29569;BME280;16501;51.462;14.346;2023-05-15T03:22:07;99630.91;;;12.41;100.00
29569;BME280;16501;51.462;14.346;2023-05-15T03:24:32;99638.84;;;12.43;100.00
29569;BME280;16501;51.462;14.346;2023-05-15T03:26:57;99635.47;;;12.33;100.00
29569;BME280;16501;51.462;14.346;2023-05-15T03:29:23;99646.53;;;12.42;100.00
29569;BME280;16501;51.462;14.346;2023-05-15T03:31:48;99599.63;;;12.22;100.00
29569;BME280;16501;51.462;14.346;2023-05-15T03:34:13;99627.59;;;12.43;100.00
29569;BME280;16501;51.462;14.346;2023-05-15T03:36:38;99622.97;;;12.40;100.00
29569;BME280;16501;51.462;14.346;2023-05-15T03:39:04;99624.53;;;12.41;100.00
29569;BME280;16501;51.462;14.346;2023-05-15T03:41:29;99610.19;;;12.33;100.00
29569;BME280;16501;51.462;14.346;2023-05-15T03:43:54;99601.16;;;12.23;100.00
29569;BME280;16501;51.462;14.346;2023-05-15T03:46:20;99611.19;;;12.30;100.00
29569;BME280;16501;51.462;14.346;2023-05-15T03:48:45;99601.75;;;12.33;100.00
29569;BME280;16501;51.462;14.346;2023-05-15T03:51:10;99578.31;;;12.10;100.00
29569;BME280;16501;51.462;14.346;2023-05-15T03:53:43;99610.69;;;12.32;100.00
29569;BME280;16501;51.462;14.346;2023-05-15T03:56:08;99613.28;;;12.41;100.00
29569;BME280;16501;51.462;14.346;2023-05-15T03:58:33;99607.94;;;12.43;100.00
29569;BME280;16501;51.462;14.346;2023-05-15T04:00:59;99608.44;;;12.41;100.00
29569;BME280;16501;51.462;14.346;2023-05-15T04:03:24;99610.47;;;12.41;100.00
29569;BME280;16501;51.462;14.346;2023-05-15T04:05:50;99606.13;;;12.40;100.00
29569;BME280;16501;51.462;14.346;2023-05-15T04:08:16;99601.50;;;12.37;100.00
29569;BME280;16501;51.462;14.346;2023-05-15T04:10:41;99600.44;;;12.29;100.00
29569;BME280;16501;51.462;14.346;2023-05-15T04:13:06;99603.00;;;12.32;100.00
29569;BME280;16501;51.462;14.346;2023-05-15T04:15:32;99569.97;;;12.16;100.00
29569;BME280;16501;51.462;14.346;2023-05-15T04:17:57;99585.56;;;12.22;100.00
29569;BME280;16501;51.462;14.346;2023-05-15T04:20:23;99599.19;;;12.35;100.00
29569;BME280;16501;51.462;14.346;2023-05-15T04:22:49;99594.34;;;12.36;100.00
29569;BME280;16501;51.462;14.346;2023-05-15T04:25:15;99580.75;;;12.29;100.00
29569;BME280;16501;51.462;14.346;2023-05-15T04:27:42;99591.03;;;12.37;100.00
29569;BME280;16501;51.462;14.346;2023-05-15T04:30:09;99570.78;;;12.27;100.00
29569;BME280;16501;51.462;14.346;2023-05-15T04:32:34;99575.16;;;12.34;100.00
29569;BME280;16501;51.462;14.346;2023-05-15T04:35:01;99578.47;;;12.33;100.00
29569;BME280;16501;51.462;14.346;2023-05-15T04:37:27;99551.25;;;12.07;100.00
29569;BME280;16501;51.462;14.346;2023-05-15T04:39:53;99548.16;;;12.05;100.00
29569;BME280;16501;51.462;14.346;2023-05-15T04:42:18;99561.22;;;12.14;100.00
29569;BME280;16501;51.462;14.346;2023-05-15T04:44:43;99558.72;;;12.16;100.00
29569;BME280;16501;51.462;14.346;2023-05-15T04:47:09;99553.84;;;12.16;100.00
29569;BME280;16501;51.462;14.346;2023-05-15T04:49:34;99546.94;;;12.17;100.00
29569;BME280;16501;51.462;14.346;2023-05-15T04:51:59;99527.22;;;12.06;100.00
29569;BME280;16501;51.462;14.346;2023-05-15T04:54:25;99515.47;;;12.02;100.00
29569;BME280;16501;51.462;14.346;2023-05-15T04:56:50;99533.84;;;12.03;100.00
29569;BME280;16501;51.462;14.346;2023-05-15T04:59:15;99522.81;;;11.94;100.00
29569;BME280;16501;51.462;14.346;2023-05-15T05:01:42;99528.78;;;12.07;100.00
29569;BME280;16501;51.462;14.346;2023-05-15T05:04:07;99521.25;;;11.93;100.00
29569;BME280;16501;51.462;14.346;2023-05-15T05:06:32;99521.00;;;11.91;100.00
29569;BME280;16501;51.462;14.346;2023-05-15T05:08:57;99495.38;;;11.83;100.00
29569;BME280;16501;51.462;14.346;2023-05-15T05:11:23;99501.31;;;11.91;100.00
29569;BME280;16501;51.462;14.346;2023-05-15T05:13:48;99515.47;;;12.02;100.00
29569;BME280;16501;51.462;14.346;2023-05-15T05:16:14;99504.72;;;12.00;100.00
29569;BME280;16501;51.462;14.346;2023-05-15T05:18:39;99516.28;;;12.14;100.00
29569;BME280;16501;51.462;14.346;2023-05-15T05:21:05;99514.28;;;12.20;100.00
29569;BME280;16501;51.462;14.346;2023-05-15T05:23:30;99516.59;;;12.21;100.00
29569;BME280;16501;51.462;14.346;2023-05-15T05:25:56;99513.50;;;12.19;100.00
29569;BME280;16501;51.462;14.346;2023-05-15T05:28:21;99515.81;;;12.21;100.00
29569;BME280;16501;51.462;14.346;2023-05-15T05:30:47;99498.38;;;12.05;100.00
29569;BME280;16501;51.462;14.346;2023-05-15T05:33:12;99504.78;;;12.17;100.00
29569;BME280;16501;51.462;14.346;2023-05-15T05:35:38;99498.38;;;12.11;100.00
29569;BME280;16501;51.462;14.346;2023-05-15T05:38:03;99483.81;;;12.07;100.00
29569;BME280;16501;51.462;14.346;2023-05-15T05:40:28;99483.34;;;12.14;100.00
29569;BME280;16501;51.462;14.346;2023-05-15T05:42:54;99494.84;;;12.16;100.00
29569;BME280;16501;51.462;14.346;2023-05-15T05:45:19;99501.97;;;12.17;100.00
29569;BME280;16501;51.462;14.346;2023-05-15T05:47:44;99483.59;;;12.16;100.00
29569;BME280;16501;51.462;14.346;2023-05-15T05:50:10;99504.63;;;12.32;100.00
29569;BME280;16501;51.462;14.346;2023-05-15T05:52:35;99480.72;;;12.05;100.00
29569;BME280;16501;51.462;14.346;2023-05-15T05:55:00;99492.81;;;12.22;100.00
29569;BME280;16501;51.462;14.346;2023-05-15T05:57:26;99499.47;;;12.19;100.00
29569;BME280;16501;51.462;14.346;2023-05-15T05:59:51;99506.13;;;12.27;100.00
29569;BME280;16501;51.462;14.346;2023-05-15T06:02:16;99503.31;;;12.27;100.00
29569;BME280;16501;51.462;14.346;2023-05-15T06:04:41;99486.41;;;12.16;100.00
29569;BME280;16501;51.462;14.346;2023-05-15T06:07:07;99483.09;;;12.18;100.00
29569;BME280;16501;51.462;14.346;2023-05-15T06:09:32;99504.38;;;12.36;100.00
29569;BME280;16501;51.462;14.346;2023-05-15T06:11:58;99480.09;;;12.33;100.00
29569;BME280;16501;51.462;14.346;2023-05-15T06:14:24;99484.19;;;12.32;100.00
29569;BME280;16501;51.462;14.346;2023-05-15T06:16:49;99486.50;;;12.33;100.00
29569;BME280;16501;51.462;14.346;2023-05-15T06:19:15;99486.50;;;12.39;100.00
29569;BME280;16501;51.462;14.346;2023-05-15T06:21:40;99468.81;;;12.27;100.00
29569;BME280;16501;51.462;14.346;2023-05-15T06:24:05;99485.22;;;12.40;100.00
29569;BME280;16501;51.462;14.346;2023-05-15T06:26:31;99470.13;;;12.32;100.00
29569;BME280;16501;51.462;14.346;2023-05-15T06:28:56;99469.63;;;12.33;100.00
29569;BME280;16501;51.462;14.346;2023-05-15T06:31:21;99468.81;;;12.27;100.00
29569;BME280;16501;51.462;14.346;2023-05-15T06:33:46;99455.81;;;12.30;100.00
29569;BME280;16501;51.462;14.346;2023-05-15T06:36:12;99479.09;;;12.41;100.00
29569;BME280;16501;51.462;14.346;2023-05-15T06:38:37;99476.34;;;12.47;100.00
29569;BME280;16501;51.462;14.346;2023-05-15T06:41:02;99473.22;;;12.45;100.00
29569;BME280;16501;51.462;14.346;2023-05-15T06:43:28;99469.41;;;12.42;100.00
29569;BME280;16501;51.462;14.346;2023-05-15T06:45:53;99475.00;;;12.37;100.00
29569;BME280;16501;51.462;14.346;2023-05-15T06:48:18;99471.97;;;12.46;100.00
29569;BME280;16501;51.462;14.346;2023-05-15T06:50:43;99471.47;;;12.48;100.00
29569;BME280;16501;51.462;14.346;2023-05-15T06:53:09;99460.22;;;12.48;100.00
29569;BME280;16501;51.462;14.346;2023-05-15T06:55:34;99455.59;;;12.44;100.00
29569;BME280;16501;51.462;14.346;2023-05-15T06:58:00;99461.28;;;12.56;100.00
29569;BME280;16501;51.462;14.346;2023-05-15T07:00:26;99452.31;;;12.52;100.00
29569;BME280;16501;51.462;14.346;2023-05-15T07:02:51;99441.28;;;12.42;100.00
29569;BME280;16501;51.462;14.346;2023-05-15T07:05:16;99462.53;;;12.49;100.00
29569;BME280;16501;51.462;14.346;2023-05-15T07:07:41;99435.94;;;12.50;100.00
29569;BME280;16501;51.462;14.346;2023-05-15T07:10:07;99453.38;;;12.71;100.00
29569;BME280;16501;51.462;14.346;2023-05-15T07:12:33;99460.78;;;12.69;100.00
29569;BME280;16501;51.462;14.346;2023-05-15T07:15:00;99454.94;;;12.72;100.00
29569;BME280;16501;51.462;14.346;2023-05-15T07:17:26;99441.06;;;12.57;100.00
29569;BME280;16501;51.462;14.346;2023-05-15T07:19:51;99458.47;;;12.61;100.00
29569;BME280;16501;51.462;14.346;2023-05-15T07:22:16;99448.50;;;12.66;100.00
29569;BME280;16501;51.462;14.346;2023-05-15T07:24:41;99449.03;;;12.64;100.00
29569;BME280;16501;51.462;14.346;2023-05-15T07:27:07;99422.59;;;12.34;100.00
29569;BME280;16501;51.462;14.346;2023-05-15T07:29:32;99424.69;;;12.44;100.00
29569;BME280;16501;51.462;14.346;2023-05-15T07:31:57;99421.09;;;12.44;100.00
29569;BME280;16501;51.462;14.346;2023-05-15T07:34:22;99437.47;;;12.51;100.00
29569;BME280;16501;51.462;14.346;2023-05-15T07:36:48;99426.25;;;12.51;100.00
29569;BME280;16501;51.462;14.346;2023-05-15T07:39:13;99446.19;;;12.59;100.00
29569;BME280;16501;51.462;14.346;2023-05-15T07:41:38;99445.44;;;12.58;100.00
29569;BME280;16501;51.462;14.346;2023-05-15T07:44:04;99424.69;;;12.44;100.00
29569;BME280;16501;51.462;14.346;2023-05-15T07:46:30;99414.44;;;12.41;100.00
29569;BME280;16501;51.462;14.346;2023-05-15T07:48:55;99428.03;;;12.54;100.00
29569;BME280;16501;51.462;14.346;2023-05-15T07:51:20;99426.00;;;12.55;100.00
29569;BME280;16501;51.462;14.346;2023-05-15T07:53:46;99440.59;;;12.64;100.00
29569;BME280;16501;51.462;14.346;2023-05-15T07:56:11;99414.50;;;12.58;100.00
29569;BME280;16501;51.462;14.346;2023-05-15T07:58:36;99425.25;;;12.66;100.00
29569;BME280;16501;51.462;14.346;2023-05-15T08:01:02;99419.63;;;12.71;100.00
29569;BME280;16501;51.462;14.346;2023-05-15T08:03:28;99416.31;;;12.67;100.00
29569;BME280;16501;51.462;14.346;2023-05-15T08:05:55;99414.53;;;12.70;100.00
29569;BME280;16501;51.462;14.346;2023-05-15T08:08:21;99419.13;;;12.67;100.00
29569;BME280;16501;51.462;14.346;2023-05-15T08:10:46;99436.53;;;12.77;100.00
29569;BME280;16501;51.462;14.346;2023-05-15T08:13:11;99437.03;;;12.75;100.00
29569;BME280;16501;51.462;14.346;2023-05-15T08:15:36;99426.84;;;12.83;100.00
29569;BME280;16501;51.462;14.346;2023-05-15T08:18:07;99429.91;;;12.91;100.00
29569;BME280;16501;51.462;14.346;2023-05-15T08:20:32;99424.78;;;12.84;100.00
29569;BME280;16501;51.462;14.346;2023-05-15T08:22:57;99429.38;;;12.87;100.00
29569;BME280;16501;51.462;14.346;2023-05-15T08:25:22;99435.22;;;12.72;100.00
29569;BME280;16501;51.462;14.346;2023-05-15T08:27:48;99428.06;;;12.66;100.00
29569;BME280;16501;51.462;14.346;2023-05-15T08:30:13;99439.84;;;12.75;100.00
29569;BME280;16501;51.462;14.346;2023-05-15T08:32:38;99431.66;;;12.77;100.00
29569;BME280;16501;51.462;14.346;2023-05-15T08:35:04;99436.03;;;12.84;100.00
29569;BME280;16501;51.462;14.346;2023-05-15T08:37:29;99436.78;;;12.85;100.00
29569;BME280;16501;51.462;14.346;2023-05-15T08:39:54;99433.44;;;12.75;100.00
29569;BME280;16501;51.462;14.346;2023-05-15T08:42:23;99428.09;;;12.77;100.00
29569;BME280;16501;51.462;14.346;2023-05-15T08:44:49;99439.59;;;12.85;100.00
29569;BME280;16501;51.462;14.346;2023-05-15T08:47:14;99436.03;;;12.84;100.00
29569;BME280;16501;51.462;14.346;2023-05-15T08:49:50;99439.88;;;12.92;100.00
29569;BME280;16501;51.462;14.346;2023-05-15T08:52:18;99419.16;;;12.95;100.00
29569;BME280;16501;51.462;14.346;2023-05-15T08:54:44;99406.59;;;12.85;100.00
29569;BME280;16501;51.462;14.346;2023-05-15T08:57:11;99424.53;;;13.10;100.00
29569;BME280;16501;51.462;14.346;2023-05-15T08:59:37;99427.88;;;13.09;100.00
29569;BME280;16501;51.462;14.346;2023-05-15T09:02:02;99412.75;;;12.95;100.00
29569;BME280;16501;51.462;14.346;2023-05-15T09:04:28;99412.00;;;13.00;100.00
29569;BME280;16501;51.462;14.346;2023-05-15T09:06:53;99398.94;;;12.97;100.00
29569;BME280;16501;51.462;14.346;2023-05-15T09:09:19;99425.56;;;13.18;100.00
29569;BME280;16501;51.462;14.346;2023-05-15T09:11:47;99424.28;;;13.25;100.00
29569;BME280;16501;51.462;14.346;2023-05-15T09:14:12;99405.34;;;13.20;100.00
29569;BME280;16501;51.462;14.346;2023-05-15T09:16:38;99395.13;;;13.23;100.00
29569;BME280;16501;51.462;14.346;2023-05-15T09:19:06;99427.88;;;13.43;100.00
29569;BME280;16501;51.462;14.346;2023-05-15T09:21:33;99420.97;;;13.44;100.00
29569;BME280;16501;51.462;14.346;2023-05-15T09:24:21;99427.38;;;13.44;100.00
29569;BME280;16501;51.462;14.346;2023-05-15T09:27:07;99430.19;;;13.50;100.00
29569;BME280;16501;51.462;14.346;2023-05-15T09:29:35;99388.22;;;13.29;100.00
29569;BME280;16501;51.462;14.346;2023-05-15T09:32:04;99421.22;;;13.51;100.00
29569;BME280;16501;51.462;14.346;2023-05-15T09:34:32;99415.59;;;13.46;100.00
29569;BME280;16501;51.462;14.346;2023-05-15T09:37:00;99422.00;;;13.52;100.00
29569;BME280;16501;51.462;14.346;2023-05-15T09:39:26;99397.19;;;13.33;100.00
29569;BME280;16501;51.462;14.346;2023-05-15T09:41:51;99408.94;;;13.37;100.00
29569;BME280;16501;51.462;14.346;2023-05-15T09:44:25;99422.22;;;13.60;100.00
29569;BME280;16501;51.462;14.346;2023-05-15T09:46:51;99414.53;;;13.60;100.00
29569;BME280;16501;51.462;14.346;2023-05-15T09:49:17;99403.53;;;13.56;100.00
29569;BME280;16501;51.462;14.346;2023-05-15T09:51:43;99414.28;;;13.58;100.00
29569;BME280;16501;51.462;14.346;2023-05-15T09:54:16;99408.94;;;13.54;100.00
29569;BME280;16501;51.462;14.346;2023-05-15T09:56:45;99419.66;;;13.67;100.00
29569;BME280;16501;51.462;14.346;2023-05-15T09:59:13;99397.13;;;13.62;100.00
29569;BME280;16501;51.462;14.346;2023-05-15T10:01:41;99415.28;;;13.77;100.00
29569;BME280;16501;51.462;14.346;2023-05-15T10:04:08;99412.72;;;13.80;100.00
29569;BME280;16501;51.462;14.346;2023-05-15T10:06:38;99415.53;;;13.80;100.00
29569;BME280;16501;51.462;14.346;2023-05-15T10:09:04;99410.94;;;13.76;100.00
29569;BME280;16501;51.462;14.346;2023-05-15T10:11:33;99401.47;;;13.68;100.00
29569;BME280;16501;51.462;14.346;2023-05-15T10:13:59;99407.09;;;13.74;100.00
29569;BME280;16501;51.462;14.346;2023-05-15T10:16:25;99421.44;;;13.82;100.00
29569;BME280;16501;51.462;14.346;2023-05-15T10:18:52;99411.72;;;13.71;100.00
29569;BME280;16501;51.462;14.346;2023-05-15T10:21:19;99411.16;;;13.84;100.00
29569;BME280;16501;51.462;14.346;2023-05-15T10:23:44;99413.22;;;13.84;100.00
29569;BME280;16501;51.462;14.346;2023-05-15T10:26:18;99413.72;;;13.82;100.00
29569;BME280;16501;51.462;14.346;2023-05-15T10:28:46;99409.13;;;13.79;100.00
29569;BME280;16501;51.462;14.346;2023-05-15T10:31:12;99394.28;;;13.73;100.00
29569;BME280;16501;51.462;14.346;2023-05-15T10:33:38;99396.63;;;13.63;100.00
29569;BME280;16501;51.462;14.346;2023-05-15T10:36:05;99391.78;;;13.64;100.00
29569;BME280;16501;51.462;14.346;2023-05-15T10:38:31;99396.84;;;13.76;100.00
29569;BME280;16501;51.462;14.346;2023-05-15T10:40:59;99400.44;;;13.71;100.00
29569;BME280;16501;51.462;14.346;2023-05-15T10:43:25;99403.22;;;13.83;100.00
29569;BME280;16501;51.462;14.346;2023-05-15T10:45:51;99401.69;;;13.82;100.00
29569;BME280;16501;51.462;14.346;2023-05-15T10:48:17;99383.06;;;13.67;100.00
29569;BME280;16501;51.462;14.346;2023-05-15T10:50:43;99387.63;;;13.70;100.00
29569;BME280;16501;51.462;14.346;2023-05-15T10:53:09;99381.75;;;13.68;100.00
29569;BME280;16501;51.462;14.346;2023-05-15T10:55:35;99379.19;;;13.70;100.00
29569;BME280;16501;51.462;14.346;2023-05-15T10:58:00;99391.72;;;13.81;100.00
29569;BME280;16501;51.462;14.346;2023-05-15T11:00:27;99376.63;;;13.72;100.00
29569;BME280;16501;51.462;14.346;2023-05-15T11:02:53;99372.81;;;13.64;100.00
29569;BME280;16501;51.462;14.346;2023-05-15T11:05:21;99391.72;;;13.81;100.00
29569;BME280;16501;51.462;14.346;2023-05-15T11:10:39;99389.66;;;13.87;100.00
29569;BME280;16501;51.462;14.346;2023-05-15T11:13:05;99392.16;;;13.96;100.00
29569;BME280;16501;51.462;14.346;2023-05-15T11:15:43;99379.09;;;13.93;100.00
29569;BME280;16501;51.462;14.346;2023-05-15T11:18:10;99388.06;;;14.03;100.00
29569;BME280;16501;51.462;14.346;2023-05-15T11:20:40;99392.41;;;14.04;100.00
29569;BME280;16501;51.462;14.346;2023-05-15T11:23:06;99380.09;;;14.01;100.00
29569;BME280;16501;51.462;14.346;2023-05-15T11:25:33;99390.34;;;14.04;100.00
29569;BME280;16501;51.462;14.346;2023-05-15T11:27:58;99360.16;;;13.88;100.00
29569;BME280;16501;51.462;14.346;2023-05-15T11:30:51;99378.31;;;14.04;100.00
29569;BME280;16501;51.462;14.346;2023-05-15T11:33:19;99366.56;;;13.94;100.00
29569;BME280;16501;51.462;14.346;2023-05-15T11:35:47;99371.09;;;14.08;100.00
29569;BME280;16501;51.462;14.346;2023-05-15T11:38:17;99359.91;;;13.97;100.00
29569;BME280;16501;51.462;14.346;2023-05-15T11:40:45;99378.53;;;14.11;100.00
29569;BME280;16501;51.462;14.346;2023-05-15T11:43:21;99370.56;;;14.21;100.00
29569;BME280;16501;51.462;14.346;2023-05-15T11:45:51;99360.25;;;14.29;100.00
29569;BME280;16501;51.462;14.346;2023-05-15T11:48:19;99349.75;;;14.30;100.00
29569;BME280;16501;51.462;14.346;2023-05-15T11:50:45;99343.84;;;14.28;100.00
29569;BME280;16501;51.462;14.346;2023-05-15T11:53:11;99347.16;;;14.32;100.00
29569;BME280;16501;51.462;14.346;2023-05-15T11:55:40;99333.91;;;14.15;100.00
29569;BME280;16501;51.462;14.346;2023-05-15T11:58:14;99339.50;;;14.27;100.00
29569;BME280;16501;51.462;14.346;2023-05-15T12:00:40;99346.59;;;14.39;100.00
29569;BME280;16501;51.462;14.346;2023-05-15T12:03:12;99343.19;;;14.52;100.00
29569;BME280;16501;51.462;14.346;2023-05-15T12:05:40;99342.38;;;14.63;100.00
29569;BME280;16501;51.462;14.346;2023-05-15T12:08:08;99327.84;;;14.47;100.00
29569;BME280;16501;51.462;14.346;2023-05-15T12:10:39;99326.78;;;14.50;100.00
29569;BME280;16501;51.462;14.346;2023-05-15T12:13:04;99339.03;;;14.64;100.00
29569;BME280;16501;51.462;14.346;2023-05-15T12:15:29;99318.28;;;14.62;100.00
29569;BME280;16501;51.462;14.346;2023-05-15T12:17:55;99332.50;;;14.81;100.00
29569;BME280;16501;51.462;14.346;2023-05-15T12:20:20;99333.03;;;14.79;100.00
29569;BME280;16501;51.462;14.346;2023-05-15T12:22:45;99331.53;;;14.73;100.00
29569;BME280;16501;51.462;14.346;2023-05-15T12:25:13;99336.66;;;14.74;100.00
29569;BME280;16501;51.462;14.346;2023-05-15T12:27:38;99335.22;;;14.62;100.00
29569;BME280;16501;51.462;14.346;2023-05-15T12:30:05;99318.50;;;14.64;100.00
29569;BME280;16501;51.462;14.346;2023-05-15T12:32:32;99325.84;;;14.78;100.00
29569;BME280;16501;51.462;14.346;2023-05-15T12:34:58;99310.81;;;14.64;100.00
29569;BME280;16501;51.462;14.346;2023-05-15T12:37:24;99317.38;;;14.78;100.00
29569;BME280;16501;51.462;14.346;2023-05-15T12:39:58;99327.53;;;14.93;100.00
29569;BME280;16501;51.462;14.346;2023-05-15T12:42:24;99296.38;;;14.74;100.00
29569;BME280;16501;51.462;14.346;2023-05-15T12:44:54;99316.94;;;14.99;100.00
29569;BME280;16501;51.462;14.346;2023-05-15T12:47:23;99320.81;;;14.96;98.33
29569;BME280;16501;51.462;14.346;2023-05-15T12:49:49;99319.81;;;14.93;98.93
29569;BME280;16501;51.462;14.346;2023-05-15T12:52:14;99311.34;;;14.93;98.61
29569;BME280;16501;51.462;14.346;2023-05-15T12:54:41;99296.41;;;14.68;95.72
29569;BME280;16501;51.462;14.346;2023-05-15T12:57:07;99312.41;;;14.90;95.23